Satsuki — JD3997 — position and weather

sailwx.info

Track history (hours):
 
Tides and Currents Weather Stations Pressure Air Temp Water Temp Dewpoint Dewpoint Depression Visibility Wind Speed Wind Dir Waves Ship Positions

Satsuki

Last reported at 2017-Nov-18 10:42 UTC. Time now 2017-Nov-20 13:40 UTC.
Position N 34°36' E 134°54'.

Length 64 m; draft 3.7 m.

Type: Tanker. MMSI: 431007429.

Date/timePositionNaut miles runAvg speedWind from/ knotsBaromVisibWave heightAir tempDewpointWater temp
2017-Nov-18 10:42N 34°36' E 134°54'313.8
2017-Nov-18 10:30N 34°37' E 134°57'612.9
2017-Nov-18 10:00N 34°36' E 135°05'712.7
2017-Nov-18 09:29N 34°37' E 135°13'612.3
2017-Nov-18 09:00N 34°38' E 135°20'610.9
2017-Nov-18 08:29N 34°39' E 135°27'2 0.4
2017-Nov-18 03:40N 34°38' E 135°29'1 6.0
2017-Nov-18 03:30N 34°38' E 135°28'4 8.5
2017-Nov-18 03:00N 34°38' E 135°23'610.9
2017-Nov-18 02:30N 34°39' E 135°16'3 6.6
2017-Nov-18 02:00N 34°42' E 135°15'0 0.0
2017-Nov-18 01:30N 34°42' E 135°15'0 0.0
2017-Nov-18 01:00N 34°42' E 135°15'0 0.0
2017-Nov-18 00:30N 34°42' E 135°15'0 0.0
2017-Nov-18 00:00N 34°42' E 135°15'0 0.0
2017-Nov-17 23:30N 34°42' E 135°15'0 0.0
2017-Nov-17 23:01N 34°42' E 135°15'2 3.1
2017-Nov-17 22:30N 34°40' E 135°15'4 8.8
2017-Nov-17 22:00N 34°37' E 135°17'0 0.6
2017-Nov-17 21:30N 34°36' E 135°18'1 1.8
2017-Nov-17 21:00N 34°36' E 135°17'4 8.5
2017-Nov-17 20:30N 34°35' E 135°12'5 9.8
2017-Nov-17 20:00N 34°34' E 135°06'4 8.1
2017-Nov-17 19:30N 34°36' E 135°02'2 0.0
2017-Nov-16 05:42N 34°38' E 134°60'3 8.9
2017-Nov-16 05:22N 34°36' E 135°03'3 9.3
2017-Nov-16 05:00N 34°36' E 135°07'510.9
2017-Nov-16 04:30N 34°36' E 135°14'511.1
2017-Nov-16 04:00N 34°38' E 135°20'4 8.9
2017-Nov-16 03:30N 34°40' E 135°25'0 0.3
2017-Nov-16 03:00N 34°40' E 135°25'0 0.0
2017-Nov-16 02:30N 34°40' E 135°25'0 0.0
2017-Nov-16 02:00N 34°40' E 135°25'0 0.0
2017-Nov-16 01:30N 34°40' E 135°25'0 0.0
2017-Nov-16 01:00N 34°40' E 135°25'0 0.0
2017-Nov-16 00:30N 34°40' E 135°25'0 0.0
2017-Nov-15 23:59N 34°40' E 135°25'0 0.0
2017-Nov-15 23:30N 34°40' E 135°25'1 2.9
2017-Nov-15 23:00N 34°40' E 135°24'2 2.9
2017-Nov-15 22:28N 34°39' E 135°22'0 0.0
2017-Nov-15 21:58N 34°39' E 135°22'0 0.0
2017-Nov-15 21:28N 34°39' E 135°22'0 0.0
2017-Nov-15 20:58N 34°39' E 135°22'0 0.0
2017-Nov-15 20:28N 34°39' E 135°22'0 0.1
2017-Nov-15 19:58N 34°39' E 135°22'0 0.0
2017-Nov-15 18:46N 34°39' E 135°22'0 0.0
2017-Nov-15 18:16N 34°39' E 135°22'0 0.0
2017-Nov-15 17:58N 34°39' E 135°22'0 0.0
2017-Nov-15 17:28N 34°39' E 135°22'0 0.0
2017-Nov-15 16:58N 34°39' E 135°22'0 0.0
2017-Nov-15 16:28N 34°39' E 135°22'0 0.0
2017-Nov-15 15:58N 34°39' E 135°22'0 0.0
2017-Nov-15 15:28N 34°39' E 135°22'0 0.6
2017-Nov-15 15:01N 34°39' E 135°22'611.1
2017-Nov-15 14:31N 34°35' E 135°17'611.2
2017-Nov-15 14:01N 34°30' E 135°14'611.2
2017-Nov-15 13:31N 34°25' E 135°10'610.7
2017-Nov-15 12:55N 34°20' E 135°06'5 9.6
2017-Nov-15 12:26N 34°16' E 135°03'510.7
2017-Nov-15 12:00N 34°12' E 135°02'224 8.7
2017-Nov-14 10:24N 34°57' E 139°28'411.2
2017-Nov-14 10:00N 35°00' E 139°32'611.4
2017-Nov-14 09:30N 35°04' E 139°37'611.7
2017-Nov-14 09:00N 35°08' E 139°43'612.2
2017-Nov-14 08:30N 35°13' E 139°46'612.3
2017-Nov-14 08:01N 35°19' E 139°43'611.1
2017-Nov-14 07:31N 35°24' E 139°43'612.0
2017-Nov-14 07:00N 35°29' E 139°48'3 5.7
2017-Nov-14 06:30N 35°31' E 139°46'0 0.0
2017-Nov-14 06:00N 35°31' E 139°46'0 0.0
2017-Nov-14 05:30N 35°31' E 139°46'0 0.0
2017-Nov-14 05:00N 35°31' E 139°46'0 0.0
2017-Nov-14 04:30N 35°31' E 139°46'0 0.0
2017-Nov-14 04:00N 35°31' E 139°46'0 0.0
2017-Nov-14 03:30N 35°31' E 139°46'0 0.0
2017-Nov-14 03:00N 35°31' E 139°46'0 0.0
2017-Nov-14 02:30N 35°31' E 139°46'0 0.0
2017-Nov-14 02:00N 35°31' E 139°46'0 0.0
2017-Nov-14 01:30N 35°31' E 139°46'0 0.0
2017-Nov-14 01:00N 35°31' E 139°46'0 0.0
2017-Nov-14 00:30N 35°31' E 139°46'0 0.0
2017-Nov-13 23:59N 35°31' E 139°46'0 0.0
2017-Nov-13 23:30N 35°31' E 139°46'1 1.7
2017-Nov-13 23:01N 35°31' E 139°46'3 6.9
2017-Nov-13 22:31N 35°30' E 139°50'0 0.2
2017-Nov-13 22:01N 35°30' E 139°50'4 0.2
2017-Nov-13 02:00N 35°32' E 139°45'0 0.0
2017-Nov-13 01:31N 35°32' E 139°45'0 0.0
2017-Nov-13 01:00N 35°32' E 139°45'0 0.0
2017-Nov-13 00:30N 35°32' E 139°45'0 0.0
2017-Nov-13 00:00N 35°32' E 139°45'0 0.0
2017-Nov-12 23:31N 35°32' E 139°45'0 0.0
2017-Nov-12 23:01N 35°32' E 139°45'2 4.5
2017-Nov-12 22:31N 35°30' E 139°47'2 4.2
2017-Nov-12 22:01N 35°28' E 139°49'0 0.0
2017-Nov-12 21:21N 35°28' E 139°49'0 0.0
2017-Nov-12 21:00N 35°28' E 139°49'0 0.0
2017-Nov-12 20:24N 35°28' E 139°49'0 0.0
2017-Nov-12 20:00N 35°28' E 139°49'0 0.0
2017-Nov-12 19:30N 35°28' E 139°49'0 0.0
2017-Nov-12 19:00N 35°28' E 139°49'0 0.0
2017-Nov-12 18:30N 35°28' E 139°49'0 0.0
2017-Nov-12 18:00N 35°28' E 139°49'0 0.0
2017-Nov-12 17:30N 35°28' E 139°49'0 0.0
2017-Nov-12 17:00N 35°28' E 139°49'0 0.0
2017-Nov-12 16:30N 35°28' E 139°49'0 0.7
2017-Nov-12 16:00N 35°28' E 139°49'611.0
2017-Nov-12 15:30N 35°23' E 139°46'510.3
2017-Nov-12 15:00N 35°18' E 139°45'510.6
2017-Nov-12 14:30N 35°13' E 139°47'510.8
2017-Nov-12 14:00N 35°08' E 139°44'611.1
2017-Nov-12 13:30N 35°04' E 139°40'611.6
2017-Nov-12 13:00N 34°60' E 139°35'234 9.1
2017-Nov-11 11:16N 34°04' E 134°60'412.2
2017-Nov-11 10:58N 34°08' E 134°59'612.2
2017-Nov-11 10:30N 34°14' E 134°59'711.6
2017-Nov-11 09:55N 34°20' E 135°01'512.3
2017-Nov-11 09:30N 34°23' E 135°06'611.5
2017-Nov-11 08:58N 34°27' E 135°12'611.3
2017-Nov-11 08:25N 34°31' E 135°18'511.1
2017-Nov-11 08:00N 34°33' E 135°23'2 4.8
2017-Nov-11 07:30N 34°33' E 135°26'0 0.0
2017-Nov-11 07:00N 34°33' E 135°26'0 0.0
2017-Nov-11 06:30N 34°33' E 135°26'0 0.0
2017-Nov-11 06:00N 34°33' E 135°26'0 0.0
2017-Nov-11 05:30N 34°33' E 135°26'0 0.0
2017-Nov-11 03:20N 34°33' E 135°26'0 0.8
2017-Nov-11 02:59N 34°33' E 135°26'0 0.2
2017-Nov-11 01:55N 34°34' E 135°25'0 0.1
2017-Nov-11 01:25N 34°34' E 135°25'0 0.0
2017-Nov-11 00:59N 34°34' E 135°25'0 0.1
2017-Nov-11 00:26N 34°33' E 135°25'0 0.1
2017-Nov-10 23:56N 34°34' E 135°25'0 0.0
2017-Nov-10 23:28N 34°34' E 135°25'0 0.0
2017-Nov-10 22:59N 34°34' E 135°25'1 1.6
2017-Nov-10 22:30N 34°33' E 135°25'2 3.3
2017-Nov-10 21:58N 34°35' E 135°23'0 0.0
2017-Nov-10 21:30N 34°35' E 135°23'0 0.0
2017-Nov-10 21:00N 34°35' E 135°23'0 0.0
2017-Nov-10 20:19N 34°35' E 135°23'0 0.0
2017-Nov-10 19:54N 34°35' E 135°23'0 0.0
2017-Nov-10 19:28N 34°35' E 135°23'0 0.0
2017-Nov-10 18:56N 34°35' E 135°23'0 0.1
2017-Nov-10 18:30N 34°35' E 135°23'0 0.0
2017-Nov-10 17:54N 34°35' E 135°23'0 0.0
2017-Nov-10 17:26N 34°35' E 135°23'0 0.0
2017-Nov-10 16:47N 34°35' E 135°23'0 0.1
2017-Nov-10 16:30N 34°35' E 135°23'0 0.1
2017-Nov-10 16:00N 34°35' E 135°23'0 0.1
2017-Nov-10 15:28N 34°35' E 135°23'0 0.1
2017-Nov-10 14:59N 34°35' E 135°23'0 0.0
2017-Nov-10 14:30N 34°35' E 135°23'0 0.0
2017-Nov-10 14:00N 34°35' E 135°23'0 0.1
2017-Nov-10 13:30N 34°35' E 135°23'0 0.1
2017-Nov-10 13:00N 34°35' E 135°23'0 0.0
2017-Nov-10 12:30N 34°35' E 135°23'0 0.0
2017-Nov-10 12:00N 34°35' E 135°23'0 0.0
2017-Nov-10 11:30N 34°35' E 135°23'0 0.0
2017-Nov-10 11:00N 34°35' E 135°23'0 0.0
2017-Nov-10 10:30N 34°35' E 135°23'0 0.0
2017-Nov-10 10:00N 34°35' E 135°23'0 0.0
2017-Nov-10 09:30N 34°35' E 135°23'0 0.0
2017-Nov-10 09:00N 34°35' E 135°23'0 0.0
2017-Nov-10 08:29N 34°35' E 135°23'0 0.0
2017-Nov-10 07:55N 34°35' E 135°23'0 0.0
2017-Nov-10 07:30N 34°35' E 135°23'1 2.0
2017-Nov-10 07:00N 34°36' E 135°23'4 8.6
2017-Nov-10 06:30N 34°39' E 135°27'2 0.7
2017-Nov-10 04:00N 34°38' E 135°29'3 5.6
2017-Nov-10 03:30N 34°39' E 135°25'3 6.6
2017-Nov-10 03:00N 34°39' E 135°21'3 5.5
2017-Nov-10 02:30N 34°40' E 135°25'0 0.2
2017-Nov-10 02:00N 34°40' E 135°25'0 0.0
2017-Nov-10 01:30N 34°40' E 135°25'0 0.0
2017-Nov-10 00:58N 34°40' E 135°25'0 1.1
2017-Nov-10 00:30N 34°39' E 135°24'5 9.3
2017-Nov-10 00:00N 34°37' E 135°19'611.4
2017-Nov-09 23:30N 34°33' E 135°15'611.1
2017-Nov-09 23:00N 34°28' E 135°11'610.7
2017-Nov-09 22:27N 34°24' E 135°06'12 9.6
2017-Nov-09 21:12N 34°13' E 134°60'2 9.5
2017-Nov-09 21:00N 34°11' E 134°60'  
Track history (hours):
 
Tides and Currents Weather Stations Pressure Air Temp Water Temp Dewpoint Dewpoint Depression Visibility Wind Speed Wind Dir Waves Ship Positions

Satsuki

Last reported at 2017-Nov-18 10:42 UTC. Time now 2017-Nov-20 13:40 UTC.
Position N 34°36' E 134°54'.

Length 64 m; draft 3.7 m.

Type: Tanker. MMSI: 431007429.

Date/timePositionNaut miles runAvg speedWind from/ knotsBaromVisibWave heightAir tempDewpointWater temp
2017-Nov-18 10:42N 34°36' E 134°54'313.8
2017-Nov-18 10:30N 34°37' E 134°57'612.9
2017-Nov-18 10:00N 34°36' E 135°05'712.7
2017-Nov-18 09:29N 34°37' E 135°13'612.3
2017-Nov-18 09:00N 34°38' E 135°20'610.9
2017-Nov-18 08:29N 34°39' E 135°27'2 0.4
2017-Nov-18 03:40N 34°38' E 135°29'1 6.0
2017-Nov-18 03:30N 34°38' E 135°28'4 8.5
2017-Nov-18 03:00N 34°38' E 135°23'610.9
2017-Nov-18 02:30N 34°39' E 135°16'3 6.6
2017-Nov-18 02:00N 34°42' E 135°15'0 0.0
2017-Nov-18 01:30N 34°42' E 135°15'0 0.0
2017-Nov-18 01:00N 34°42' E 135°15'0 0.0
2017-Nov-18 00:30N 34°42' E 135°15'0 0.0
2017-Nov-18 00:00N 34°42' E 135°15'0 0.0
2017-Nov-17 23:30N 34°42' E 135°15'0 0.0
2017-Nov-17 23:01N 34°42' E 135°15'2 3.1
2017-Nov-17 22:30N 34°40' E 135°15'4 8.8
2017-Nov-17 22:00N 34°37' E 135°17'0 0.6
2017-Nov-17 21:30N 34°36' E 135°18'1 1.8
2017-Nov-17 21:00N 34°36' E 135°17'4 8.5
2017-Nov-17 20:30N 34°35' E 135°12'5 9.8
2017-Nov-17 20:00N 34°34' E 135°06'4 8.1
2017-Nov-17 19:30N 34°36' E 135°02'2 0.0
2017-Nov-16 05:42N 34°38' E 134°60'3 8.9
2017-Nov-16 05:22N 34°36' E 135°03'3 9.3
2017-Nov-16 05:00N 34°36' E 135°07'510.9
2017-Nov-16 04:30N 34°36' E 135°14'511.1
2017-Nov-16 04:00N 34°38' E 135°20'4 8.9
2017-Nov-16 03:30N 34°40' E 135°25'0 0.3
2017-Nov-16 03:00N 34°40' E 135°25'0 0.0
2017-Nov-16 02:30N 34°40' E 135°25'0 0.0
2017-Nov-16 02:00N 34°40' E 135°25'0 0.0
2017-Nov-16 01:30N 34°40' E 135°25'0 0.0
2017-Nov-16 01:00N 34°40' E 135°25'0 0.0
2017-Nov-16 00:30N 34°40' E 135°25'0 0.0
2017-Nov-15 23:59N 34°40' E 135°25'0 0.0
2017-Nov-15 23:30N 34°40' E 135°25'1 2.9
2017-Nov-15 23:00N 34°40' E 135°24'2 2.9
2017-Nov-15 22:28N 34°39' E 135°22'0 0.0
2017-Nov-15 21:58N 34°39' E 135°22'0 0.0
2017-Nov-15 21:28N 34°39' E 135°22'0 0.0
2017-Nov-15 20:58N 34°39' E 135°22'0 0.0
2017-Nov-15 20:28N 34°39' E 135°22'0 0.1
2017-Nov-15 19:58N 34°39' E 135°22'0 0.0
2017-Nov-15 18:46N 34°39' E 135°22'0 0.0
2017-Nov-15 18:16N 34°39' E 135°22'0 0.0
2017-Nov-15 17:58N 34°39' E 135°22'0 0.0
2017-Nov-15 17:28N 34°39' E 135°22'0 0.0
2017-Nov-15 16:58N 34°39' E 135°22'0 0.0
2017-Nov-15 16:28N 34°39' E 135°22'0 0.0
2017-Nov-15 15:58N 34°39' E 135°22'0 0.0
2017-Nov-15 15:28N 34°39' E 135°22'0 0.6
2017-Nov-15 15:01N 34°39' E 135°22'611.1
2017-Nov-15 14:31N 34°35' E 135°17'611.2
2017-Nov-15 14:01N 34°30' E 135°14'611.2
2017-Nov-15 13:31N 34°25' E 135°10'610.7
2017-Nov-15 12:55N 34°20' E 135°06'5 9.6
2017-Nov-15 12:26N 34°16' E 135°03'510.7
2017-Nov-15 12:00N 34°12' E 135°02'224 8.7
2017-Nov-14 10:24N 34°57' E 139°28'411.2
2017-Nov-14 10:00N 35°00' E 139°32'611.4
2017-Nov-14 09:30N 35°04' E 139°37'611.7
2017-Nov-14 09:00N 35°08' E 139°43'612.2
2017-Nov-14 08:30N 35°13' E 139°46'612.3
2017-Nov-14 08:01N 35°19' E 139°43'611.1
2017-Nov-14 07:31N 35°24' E 139°43'612.0
2017-Nov-14 07:00N 35°29' E 139°48'3 5.7
2017-Nov-14 06:30N 35°31' E 139°46'0 0.0
2017-Nov-14 06:00N 35°31' E 139°46'0 0.0
2017-Nov-14 05:30N 35°31' E 139°46'0 0.0
2017-Nov-14 05:00N 35°31' E 139°46'0 0.0
2017-Nov-14 04:30N 35°31' E 139°46'0 0.0
2017-Nov-14 04:00N 35°31' E 139°46'0 0.0
2017-Nov-14 03:30N 35°31' E 139°46'0 0.0
2017-Nov-14 03:00N 35°31' E 139°46'0 0.0
2017-Nov-14 02:30N 35°31' E 139°46'0 0.0
2017-Nov-14 02:00N 35°31' E 139°46'0 0.0
2017-Nov-14 01:30N 35°31' E 139°46'0 0.0
2017-Nov-14 01:00N 35°31' E 139°46'0 0.0
2017-Nov-14 00:30N 35°31' E 139°46'0 0.0
2017-Nov-13 23:59N 35°31' E 139°46'0 0.0
2017-Nov-13 23:30N 35°31' E 139°46'1 1.7
2017-Nov-13 23:01N 35°31' E 139°46'3 6.9
2017-Nov-13 22:31N 35°30' E 139°50'0 0.2
2017-Nov-13 22:01N 35°30' E 139°50'4 0.2
2017-Nov-13 02:00N 35°32' E 139°45'0 0.0
2017-Nov-13 01:31N 35°32' E 139°45'0 0.0
2017-Nov-13 01:00N 35°32' E 139°45'0 0.0
2017-Nov-13 00:30N 35°32' E 139°45'0 0.0
2017-Nov-13 00:00N 35°32' E 139°45'0 0.0
2017-Nov-12 23:31N 35°32' E 139°45'0 0.0
2017-Nov-12 23:01N 35°32' E 139°45'2 4.5
2017-Nov-12 22:31N 35°30' E 139°47'2 4.2
2017-Nov-12 22:01N 35°28' E 139°49'0 0.0
2017-Nov-12 21:21N 35°28' E 139°49'0 0.0
2017-Nov-12 21:00N 35°28' E 139°49'0 0.0
2017-Nov-12 20:24N 35°28' E 139°49'0 0.0
2017-Nov-12 20:00N 35°28' E 139°49'0 0.0
2017-Nov-12 19:30N 35°28' E 139°49'0 0.0
2017-Nov-12 19:00N 35°28' E 139°49'0 0.0
2017-Nov-12 18:30N 35°28' E 139°49'0 0.0
2017-Nov-12 18:00N 35°28' E 139°49'0 0.0
2017-Nov-12 17:30N 35°28' E 139°49'0 0.0
2017-Nov-12 17:00N 35°28' E 139°49'0 0.0
2017-Nov-12 16:30N 35°28' E 139°49'0 0.7
2017-Nov-12 16:00N 35°28' E 139°49'611.0
2017-Nov-12 15:30N 35°23' E 139°46'510.3
2017-Nov-12 15:00N 35°18' E 139°45'510.6
2017-Nov-12 14:30N 35°13' E 139°47'510.8
2017-Nov-12 14:00N 35°08' E 139°44'611.1
2017-Nov-12 13:30N 35°04' E 139°40'611.6
2017-Nov-12 13:00N 34°60' E 139°35'234 9.1
2017-Nov-11 11:16N 34°04' E 134°60'412.2
2017-Nov-11 10:58N 34°08' E 134°59'612.2
2017-Nov-11 10:30N 34°14' E 134°59'711.6
2017-Nov-11 09:55N 34°20' E 135°01'512.3
2017-Nov-11 09:30N 34°23' E 135°06'611.5
2017-Nov-11 08:58N 34°27' E 135°12'611.3
2017-Nov-11 08:25N 34°31' E 135°18'511.1
2017-Nov-11 08:00N 34°33' E 135°23'2 4.8
2017-Nov-11 07:30N 34°33' E 135°26'0 0.0
2017-Nov-11 07:00N 34°33' E 135°26'0 0.0
2017-Nov-11 06:30N 34°33' E 135°26'0 0.0
2017-Nov-11 06:00N 34°33' E 135°26'0 0.0
2017-Nov-11 05:30N 34°33' E 135°26'0 0.0
2017-Nov-11 03:20N 34°33' E 135°26'0 0.8
2017-Nov-11 02:59N 34°33' E 135°26'0 0.2
2017-Nov-11 01:55N 34°34' E 135°25'0 0.1
2017-Nov-11 01:25N 34°34' E 135°25'0 0.0
2017-Nov-11 00:59N 34°34' E 135°25'0 0.1
2017-Nov-11 00:26N 34°33' E 135°25'0 0.1
2017-Nov-10 23:56N 34°34' E 135°25'0 0.0
2017-Nov-10 23:28N 34°34' E 135°25'0 0.0
2017-Nov-10 22:59N 34°34' E 135°25'1 1.6
2017-Nov-10 22:30N 34°33' E 135°25'2 3.3
2017-Nov-10 21:58N 34°35' E 135°23'0 0.0
2017-Nov-10 21:30N 34°35' E 135°23'0 0.0
2017-Nov-10 21:00N 34°35' E 135°23'0 0.0
2017-Nov-10 20:19N 34°35' E 135°23'0 0.0
2017-Nov-10 19:54N 34°35' E 135°23'0 0.0
2017-Nov-10 19:28N 34°35' E 135°23'0 0.0
2017-Nov-10 18:56N 34°35' E 135°23'0 0.1
2017-Nov-10 18:30N 34°35' E 135°23'0 0.0
2017-Nov-10 17:54N 34°35' E 135°23'0 0.0
2017-Nov-10 17:26N 34°35' E 135°23'0 0.0
2017-Nov-10 16:47N 34°35' E 135°23'0 0.1
2017-Nov-10 16:30N 34°35' E 135°23'0 0.1
2017-Nov-10 16:00N 34°35' E 135°23'0 0.1
2017-Nov-10 15:28N 34°35' E 135°23'0 0.1
2017-Nov-10 14:59N 34°35' E 135°23'0 0.0
2017-Nov-10 14:30N 34°35' E 135°23'0 0.0
2017-Nov-10 14:00N 34°35' E 135°23'0 0.1
2017-Nov-10 13:30N 34°35' E 135°23'0 0.1
2017-Nov-10 13:00N 34°35' E 135°23'0 0.0
2017-Nov-10 12:30N 34°35' E 135°23'0 0.0
2017-Nov-10 12:00N 34°35' E 135°23'0 0.0
2017-Nov-10 11:30N 34°35' E 135°23'0 0.0
2017-Nov-10 11:00N 34°35' E 135°23'0 0.0
2017-Nov-10 10:30N 34°35' E 135°23'0 0.0
2017-Nov-10 10:00N 34°35' E 135°23'0 0.0
2017-Nov-10 09:30N 34°35' E 135°23'0 0.0
2017-Nov-10 09:00N 34°35' E 135°23'0 0.0
2017-Nov-10 08:29N 34°35' E 135°23'0 0.0
2017-Nov-10 07:55N 34°35' E 135°23'0 0.0
2017-Nov-10 07:30N 34°35' E 135°23'1 2.0
2017-Nov-10 07:00N 34°36' E 135°23'4 8.6
2017-Nov-10 06:30N 34°39' E 135°27'2 0.7
2017-Nov-10 04:00N 34°38' E 135°29'3 5.6
2017-Nov-10 03:30N 34°39' E 135°25'3 6.6
2017-Nov-10 03:00N 34°39' E 135°21'3 5.5
2017-Nov-10 02:30N 34°40' E 135°25'0 0.2
2017-Nov-10 02:00N 34°40' E 135°25'0 0.0
2017-Nov-10 01:30N 34°40' E 135°25'0 0.0
2017-Nov-10 00:58N 34°40' E 135°25'0 1.1
2017-Nov-10 00:30N 34°39' E 135°24'5 9.3
2017-Nov-10 00:00N 34°37' E 135°19'611.4
2017-Nov-09 23:30N 34°33' E 135°15'611.1
2017-Nov-09 23:00N 34°28' E 135°11'610.7
2017-Nov-09 22:27N 34°24' E 135°06'12 9.6
2017-Nov-09 21:12N 34°13' E 134°60'2 9.5
2017-Nov-09 21:00N 34°11' E 134°60'  

Dump ship's entire track history